createdAt,value
2023-02-13T00:02:25.851Z,103618.06
2023-02-13T00:04:55.069Z,103609.34
2023-02-13T00:07:24.362Z,103608.50
2023-02-13T00:09:53.528Z,103606.19
2023-02-13T00:12:24.281Z,103615.47
2023-02-13T00:14:55.827Z,103616.41
2023-02-13T00:17:25.564Z,103608.66
2023-02-13T00:19:54.927Z,103608.66
2023-02-13T00:22:24.280Z,103599.91
2023-02-13T00:24:53.573Z,103600.94
2023-02-13T00:27:24.052Z,103587.84
2023-02-13T00:29:53.284Z,103594.88
2023-02-13T00:32:22.550Z,103596.53
2023-02-13T00:34:52.044Z,103593.88
2023-02-13T00:37:23.961Z,103599.25
2023-02-13T00:39:56.223Z,103593.97
2023-02-13T00:42:26.783Z,103595.72
2023-02-13T00:44:56.120Z,103593.16
2023-02-13T00:47:25.639Z,103594.84
2023-02-13T00:49:54.677Z,103598.34
2023-02-13T00:52:24.076Z,103597.50
2023-02-13T00:54:53.237Z,103593.97
2023-02-13T00:57:22.387Z,103600.00
2023-02-13T00:59:52.834Z,103601.91
2023-02-13T01:02:21.996Z,103592.16
2023-02-13T01:04:51.239Z,103599.25
2023-02-13T01:07:21.057Z,103585.31
2023-02-13T01:09:50.299Z,103594.94
2023-02-13T01:12:20.013Z,103590.53
2023-02-13T01:14:49.204Z,103589.59
2023-02-13T01:17:21.797Z,103591.41
2023-02-13T01:19:51.143Z,103588.78
2023-02-13T01:22:20.786Z,103587.84
2023-02-13T01:24:51.520Z,103584.56
2023-02-13T01:27:20.856Z,103584.31
2023-02-13T01:29:50.663Z,103591.50
2023-02-13T01:32:22.650Z,103585.41
2023-02-13T01:34:52.167Z,103583.66
2023-02-13T01:37:21.206Z,103581.94
2023-02-13T01:39:50.737Z,103585.31
2023-02-13T01:42:26.616Z,103578.31
2023-02-13T01:44:58.505Z,103576.72
2023-02-13T01:47:40.484Z,103575.75
2023-02-13T01:50:13.939Z,103569.78
2023-02-13T01:52:48.179Z,103568.09
2023-02-13T01:55:18.401Z,103565.63
2023-02-13T01:57:54.972Z,103564.75
2023-02-13T02:00:27.863Z,103559.22
2023-02-13T02:03:05.168Z,103566.38
2023-02-13T02:05:37.532Z,103567.53
2023-02-13T02:08:10.573Z,103554.97
2023-02-13T02:10:47.844Z,103549.00
2023-02-13T02:13:19.271Z,103552.69
2023-02-13T02:15:50.978Z,103554.28
2023-02-13T02:18:23.585Z,103552.59
2023-02-13T02:21:30.080Z,103553.63
2023-02-13T02:24:32.867Z,103546.56
2023-02-13T02:27:42.652Z,103549.09
2023-02-13T02:30:46.902Z,103556.00
2023-02-13T02:33:30.919Z,103556.03
2023-02-13T02:36:19.964Z,103556.13
2023-02-13T02:39:03.454Z,103541.50
2023-02-13T02:41:50.103Z,103548.44
2023-02-13T02:44:34.003Z,103544.16
2023-02-13T02:47:30.734Z,103555.34
2023-02-13T02:50:15.759Z,103549.44
2023-02-13T02:52:55.495Z,103545.03
2023-02-13T02:55:38.173Z,103545.00
2023-02-13T02:58:32.381Z,103544.06
2023-02-13T03:01:22.924Z,103543.19
2023-02-13T03:04:11.128Z,103537.31
2023-02-13T03:06:47.876Z,103537.44
2023-02-13T03:09:38.947Z,103540.09
2023-02-13T03:12:28.314Z,103540.78
2023-02-13T03:14:57.838Z,103539.94
2023-02-13T03:17:44.622Z,103536.34
2023-02-13T03:20:41.622Z,103535.75
2023-02-13T03:23:21.728Z,103548.69
2023-02-13T03:26:20.275Z,103547.63
2023-02-13T03:29:14.077Z,103535.47
2023-02-13T03:31:53.853Z,103546.66
2023-02-13T03:34:46.457Z,103549.47
2023-02-13T03:37:39.214Z,103545.00
2023-02-13T03:40:16.999Z,103552.97
2023-02-13T03:42:50.960Z,103554.59
2023-02-13T03:45:41.001Z,103559.03
2023-02-13T03:48:32.075Z,103557.31
2023-02-13T03:51:02.213Z,103552.97
2023-02-13T03:53:36.644Z,103552.00
2023-02-13T03:56:27.293Z,103555.50
2023-02-13T03:59:17.604Z,103558.16
2023-02-13T04:01:52.531Z,103561.84
2023-02-13T04:04:29.432Z,103559.09
2023-02-13T04:07:01.908Z,103559.19
2023-02-13T04:09:34.535Z,103551.19
2023-02-13T04:12:14.315Z,103551.13
2023-02-13T04:14:51.120Z,103555.47
2023-02-13T04:17:25.440Z,103555.19
2023-02-13T04:19:55.763Z,103552.69
2023-02-13T04:22:25.146Z,103550.34
2023-02-13T04:24:54.538Z,103553.06
2023-02-13T04:27:28.985Z,103541.75
2023-02-13T04:29:58.172Z,103554.91
2023-02-13T04:32:27.361Z,103547.81
2023-02-13T04:34:56.694Z,103553.03
2023-02-13T04:37:26.135Z,103554.00
2023-02-13T04:39:55.485Z,103548.78
2023-02-13T04:42:25.997Z,103553.31
2023-02-13T04:44:55.099Z,103562.00
2023-02-13T04:47:24.617Z,103554.97
2023-02-13T04:49:53.676Z,103553.34
2023-02-13T04:52:23.190Z,103551.75
2023-02-13T04:54:52.568Z,103548.09
2023-02-13T04:57:21.651Z,103560.28
2023-02-13T04:59:52.204Z,103548.91
2023-02-13T05:02:21.544Z,103541.16
2023-02-13T05:04:50.645Z,103555.06
2023-02-13T05:07:19.996Z,103553.22
2023-02-13T05:09:51.293Z,103557.88
2023-02-13T05:12:20.562Z,103556.41
2023-02-13T05:14:51.504Z,103557.06
2023-02-13T05:17:20.595Z,103565.84
2023-02-13T05:19:49.989Z,103552.81
2023-02-13T05:22:36.419Z,103561.41
2023-02-13T05:25:05.997Z,103564.72
2023-02-13T05:27:35.069Z,103564.13
2023-02-13T05:30:05.680Z,103562.44
2023-02-13T05:32:35.236Z,103569.53
2023-02-13T05:35:05.017Z,103562.31
2023-02-13T05:37:34.287Z,103567.50
2023-02-13T05:40:03.941Z,103568.28
2023-02-13T05:42:35.307Z,103565.75
2023-02-13T05:45:06.608Z,103571.78
2023-02-13T05:47:35.844Z,103563.25
2023-02-13T05:50:05.233Z,103566.63
2023-02-13T05:52:34.491Z,103574.53
2023-02-13T05:55:03.736Z,103566.72
2023-02-13T05:57:34.696Z,103558.91
2023-02-13T06:00:07.413Z,103562.44
2023-02-13T06:02:37.219Z,103569.41
2023-02-13T06:05:07.280Z,103565.97
2023-02-13T06:07:36.413Z,103559.94
2023-02-13T06:10:05.889Z,103565.19
2023-02-13T06:12:35.019Z,103565.16
2023-02-13T06:15:06.596Z,103562.47
2023-02-13T06:17:35.811Z,103571.31
2023-02-13T06:20:05.573Z,103566.09
2023-02-13T06:22:34.668Z,103569.75
2023-02-13T06:25:03.836Z,103569.44
2023-02-13T06:27:33.256Z,103568.53
2023-02-13T06:30:02.639Z,103569.84
2023-02-13T06:32:33.329Z,103571.50
2023-02-13T06:35:05.428Z,103577.50
2023-02-13T06:37:35.187Z,103578.44
2023-02-13T06:40:08.663Z,103580.34
2023-02-13T06:42:37.933Z,103587.28
2023-02-13T06:45:08.493Z,103595.09
2023-02-13T06:47:43.288Z,103590.63
2023-02-13T06:50:13.857Z,103594.94
2023-02-13T06:52:47.887Z,103593.13
2023-02-13T06:55:17.618Z,103593.91
2023-02-13T06:57:47.620Z,103608.75
2023-02-13T07:00:18.556Z,103609.47
2023-02-13T07:02:49.637Z,103607.75
2023-02-13T07:05:19.084Z,103606.84
2023-02-13T07:07:48.202Z,103611.38
2023-02-13T07:10:17.321Z,103615.81
2023-02-13T07:12:53.930Z,103614.16
2023-02-13T07:15:34.851Z,103618.56
2023-02-13T07:18:06.300Z,103625.28
2023-02-13T07:20:36.121Z,103616.75
2023-02-13T07:23:06.609Z,103615.94
2023-02-13T07:25:36.001Z,103616.63
2023-02-13T07:28:06.484Z,103622.72
2023-02-13T07:30:36.547Z,103614.91
2023-02-13T07:33:08.194Z,103624.53
2023-02-13T07:35:38.429Z,103620.94
2023-02-13T07:38:07.561Z,103632.13
2023-02-13T07:40:36.663Z,103627.78
2023-02-13T07:43:05.905Z,103630.41
2023-02-13T07:45:35.229Z,103640.03
2023-02-13T07:48:04.604Z,103633.94
2023-02-13T07:50:35.065Z,103638.22
2023-02-13T07:53:04.373Z,103632.94
2023-02-13T07:55:33.838Z,103639.78
2023-02-13T07:58:02.963Z,103634.72
2023-02-13T08:00:32.096Z,103633.78
2023-02-13T08:03:01.833Z,103640.72
2023-02-13T08:05:34.873Z,103644.13
2023-02-13T08:08:05.773Z,103637.88
2023-02-13T08:10:52.699Z,103637.97
2023-02-13T08:13:21.859Z,103652.69
2023-02-13T08:15:51.125Z,103651.84
2023-02-13T08:18:20.313Z,103655.25
2023-02-13T08:20:49.889Z,103657.00
2023-02-13T08:23:20.377Z,103659.56
2023-02-13T08:25:49.835Z,103661.31
2023-02-13T08:28:19.405Z,103665.66
2023-02-13T08:30:48.742Z,103657.78
2023-02-13T08:33:18.118Z,103660.44
2023-02-13T08:35:47.483Z,103653.41
2023-02-13T08:38:16.702Z,103654.09
2023-02-13T08:40:47.179Z,103644.66
2023-02-13T08:43:16.360Z,103649.69
2023-02-13T08:45:45.447Z,103642.72
2023-02-13T08:48:14.560Z,103645.19
2023-02-13T08:50:43.781Z,103653.22
2023-02-13T08:53:13.438Z,103655.66
2023-02-13T08:55:42.514Z,103643.44
2023-02-13T08:58:13.413Z,103652.19
2023-02-13T09:00:42.676Z,103646.22
2023-02-13T09:03:11.839Z,103646.94
2023-02-13T09:05:41.003Z,103639.19
2023-02-13T09:08:11.721Z,103646.19
2023-02-13T09:10:41.645Z,103659.06
2023-02-13T09:13:12.111Z,103654.66
2023-02-13T09:15:41.728Z,103649.25
2023-02-13T09:18:10.808Z,103652.78
2023-02-13T09:20:40.137Z,103655.44
2023-02-13T09:23:09.251Z,103657.13
2023-02-13T09:25:38.666Z,103656.19
2023-02-13T09:28:08.275Z,103652.72
2023-02-13T09:30:38.886Z,103666.53
2023-02-13T09:33:12.865Z,103667.22
2023-02-13T09:35:42.366Z,103673.22
2023-02-13T09:38:11.564Z,103668.06
2023-02-13T09:40:47.616Z,103664.91
2023-02-13T09:43:24.176Z,103664.50
2023-02-13T09:46:00.045Z,103661.63
2023-02-13T09:48:33.435Z,103656.41
2023-02-13T09:51:02.959Z,103656.44
2023-02-13T09:53:33.380Z,103655.16
2023-02-13T09:56:11.589Z,103643.78
2023-02-13T09:58:45.500Z,103652.28
2023-02-13T10:01:27.307Z,103645.59
2023-02-13T10:04:22.020Z,103645.97
2023-02-13T10:06:57.193Z,103644.69
2023-02-13T10:09:34.495Z,103635.91
2023-02-13T10:12:20.550Z,103636.97
2023-02-13T10:14:59.453Z,103640.94
2023-02-13T10:17:35.041Z,103634.25
2023-02-13T10:20:06.972Z,103633.81
2023-02-13T10:22:40.648Z,103633.75
2023-02-13T10:25:17.216Z,103632.84
2023-02-13T10:27:54.972Z,103630.78
2023-02-13T10:30:27.691Z,103630.97
2023-02-13T10:33:20.439Z,103629.03
2023-02-13T10:35:55.734Z,103639.22
2023-02-13T10:38:25.583Z,103636.47
2023-02-13T10:41:07.185Z,103637.91
2023-02-13T10:43:50.530Z,103643.03
2023-02-13T10:46:30.864Z,103647.16
2023-02-13T10:49:15.948Z,103630.75
2023-02-13T10:51:53.507Z,103627.69
2023-02-13T10:54:33.404Z,103634.81
2023-02-13T10:57:11.936Z,103626.72
2023-02-13T10:59:52.167Z,103632.06
2023-02-13T11:02:26.246Z,103630.00
2023-02-13T11:05:02.147Z,103636.22
2023-02-13T11:07:32.494Z,103630.41
2023-02-13T11:10:07.251Z,103624.44
2023-02-13T11:12:36.612Z,103625.69
2023-02-13T11:15:08.907Z,103621.47
2023-02-13T11:17:43.419Z,103613.69
2023-02-13T11:20:32.674Z,103615.53
2023-02-13T11:23:33.978Z,103610.63
2023-02-13T11:26:07.803Z,103602.59
2023-02-13T11:28:40.760Z,103601.50
2023-02-13T11:31:26.137Z,103594.13
2023-02-13T11:33:58.807Z,103604.88
2023-02-13T11:36:33.989Z,103603.16
2023-02-13T11:39:05.980Z,103606.63
2023-02-13T11:41:41.676Z,103610.81
2023-02-13T11:44:24.828Z,103614.53
2023-02-13T11:46:56.454Z,103626.63
2023-02-13T11:49:27.544Z,103612.28
2023-02-13T11:51:59.458Z,103617.19
2023-02-13T11:54:33.940Z,103614.78
2023-02-13T11:57:06.180Z,103610.72
2023-02-13T11:59:43.178Z,103614.53
2023-02-13T12:02:19.305Z,103611.19
2023-02-13T12:04:49.641Z,103608.44
2023-02-13T12:07:24.518Z,103612.84
2023-02-13T12:10:01.899Z,103610.38
2023-02-13T12:12:38.698Z,103605.59
2023-02-13T12:15:18.542Z,103600.06
2023-02-13T12:17:54.757Z,103600.28
2023-02-13T12:20:25.437Z,103598.13
2023-02-13T12:23:08.671Z,103600.63
2023-02-13T12:25:59.773Z,103598.44
2023-02-13T12:28:53.886Z,103602.06
2023-02-13T12:31:46.782Z,103598.00
2023-02-13T12:34:53.626Z,103591.91
2023-02-13T12:37:41.375Z,103588.34
2023-02-13T12:40:39.817Z,103583.78
2023-02-13T12:43:41.690Z,103583.91
2023-02-13T12:46:18.491Z,103585.75
2023-02-13T12:48:53.984Z,103580.69
2023-02-13T12:51:34.816Z,103584.44
2023-02-13T12:54:28.218Z,103586.38
2023-02-13T12:57:14.750Z,103584.53
2023-02-13T12:59:56.970Z,103584.00
2023-02-13T13:03:02.748Z,103584.06
2023-02-13T13:06:03.631Z,103585.06
2023-02-13T13:08:55.526Z,103576.56
2023-02-13T13:11:38.793Z,103576.94
2023-02-13T13:14:21.117Z,103580.28
2023-02-13T13:17:00.483Z,103578.88
2023-02-13T13:19:39.699Z,103579.19
2023-02-13T13:22:18.337Z,103576.63
2023-02-13T13:24:59.583Z,103571.91
2023-02-13T13:27:33.580Z,103576.88
2023-02-13T13:30:14.369Z,103578.47
2023-02-13T13:32:46.831Z,103571.75
2023-02-13T13:35:17.200Z,103572.53
2023-02-13T13:38:02.620Z,103566.13
2023-02-13T13:40:40.897Z,103559.13
2023-02-13T13:43:20.792Z,103559.81
2023-02-13T13:46:07.020Z,103564.72
2023-02-13T13:49:01.804Z,103560.75
2023-02-13T13:51:32.442Z,103569.72
2023-02-13T13:54:26.396Z,103570.38
2023-02-13T13:57:12.909Z,103574.06
2023-02-13T14:00:04.005Z,103574.94
2023-02-13T14:02:45.003Z,103574.59
2023-02-13T14:05:32.021Z,103570.28
2023-02-13T14:08:03.683Z,103577.31
2023-02-13T14:11:09.687Z,103577.13
2023-02-13T14:13:41.491Z,103577.66
2023-02-13T14:16:13.259Z,103576.78
2023-02-13T14:18:50.753Z,103569.41
2023-02-13T14:21:25.679Z,103571.47
2023-02-13T14:23:59.599Z,103570.38
2023-02-13T14:26:43.822Z,103569.28
2023-02-13T14:29:35.042Z,103570.69
2023-02-13T14:32:18.898Z,103573.22
2023-02-13T14:35:00.801Z,103570.91
2023-02-13T14:37:40.224Z,103574.50
2023-02-13T14:40:55.103Z,103564.91
2023-02-13T14:43:43.875Z,103572.84
2023-02-13T14:46:35.623Z,103562.97
2023-02-13T14:49:14.030Z,103563.00
2023-02-13T14:51:49.474Z,103567.63
2023-02-13T14:54:29.835Z,103561.34
2023-02-13T14:57:07.789Z,103555.47
2023-02-13T14:59:41.870Z,103563.47
2023-02-13T15:02:20.107Z,103552.84
2023-02-13T15:04:55.167Z,103550.50
2023-02-13T15:07:28.566Z,103550.69
2023-02-13T15:10:02.865Z,103548.66
2023-02-13T15:12:34.478Z,103545.38
2023-02-13T15:15:18.767Z,103548.25
2023-02-13T15:17:48.741Z,103549.47
2023-02-13T15:20:25.167Z,103549.63
2023-02-13T15:22:55.825Z,103549.94
2023-02-13T15:25:32.892Z,103544.91
2023-02-13T15:28:03.637Z,103543.34
2023-02-13T15:30:36.184Z,103545.34
2023-02-13T15:33:16.993Z,103541.78
2023-02-13T15:35:46.453Z,103540.78
2023-02-13T15:38:27.818Z,103538.38
2023-02-13T15:41:00.749Z,103547.63
2023-02-13T15:43:35.476Z,103546.22
2023-02-13T15:46:09.657Z,103542.72
2023-02-13T15:48:38.915Z,103535.44
2023-02-13T15:51:08.483Z,103536.34
2023-02-13T15:53:51.176Z,103527.94
2023-02-13T15:56:20.324Z,103530.44
2023-02-13T15:58:51.096Z,103531.72
2023-02-13T16:01:20.459Z,103529.19
2023-02-13T16:03:52.289Z,103530.94
2023-02-13T16:06:24.788Z,103528.59
2023-02-13T16:08:57.698Z,103531.16
2023-02-13T16:11:33.474Z,103524.47
2023-02-13T16:14:16.395Z,103519.13
2023-02-13T16:16:52.430Z,103516.56
2023-02-13T16:19:34.665Z,103510.00
2023-02-13T16:22:25.539Z,103520.22
2023-02-13T16:25:04.263Z,103517.53
2023-02-13T16:27:35.118Z,103516.09
2023-02-13T16:30:07.500Z,103522.81
2023-02-13T16:32:38.955Z,103521.94
2023-02-13T16:35:27.202Z,103522.91
2023-02-13T16:38:00.145Z,103528.31
2023-02-13T16:40:40.115Z,103527.38
2023-02-13T16:43:34.852Z,103521.44
2023-02-13T16:46:36.268Z,103517.00
2023-02-13T16:49:20.545Z,103518.84
2023-02-13T16:51:56.367Z,103525.69
2023-02-13T16:54:34.579Z,103524.91
2023-02-13T16:57:17.475Z,103525.72
2023-02-13T17:00:08.396Z,103525.91
2023-02-13T17:02:38.239Z,103532.75
2023-02-13T17:05:20.252Z,103518.94
2023-02-13T17:07:51.327Z,103521.59
2023-02-13T17:10:23.505Z,103532.97
2023-02-13T17:12:54.550Z,103524.25
2023-02-13T17:15:25.402Z,103532.09
2023-02-13T17:17:54.654Z,103532.13
2023-02-13T17:20:26.398Z,103540.69
2023-02-13T17:22:57.227Z,103538.34
2023-02-13T17:25:28.100Z,103538.25
2023-02-13T17:28:00.077Z,103537.44
2023-02-13T17:30:30.988Z,103541.13
2023-02-13T17:33:01.840Z,103533.19
2023-02-13T17:35:31.332Z,103543.81
2023-02-13T17:38:02.844Z,103542.78
2023-02-13T17:40:32.039Z,103546.94
2023-02-13T17:43:02.984Z,103539.19
2023-02-13T17:45:34.526Z,103539.22
2023-02-13T17:48:04.851Z,103534.91
2023-02-13T17:50:35.524Z,103545.44
2023-02-13T17:53:07.729Z,103538.66
2023-02-13T17:55:37.317Z,103534.97
2023-02-13T17:58:07.848Z,103545.38
2023-02-13T18:00:37.075Z,103540.16
2023-02-13T18:03:06.459Z,103542.72
2023-02-13T18:05:35.822Z,103540.31
2023-02-13T18:08:05.255Z,103545.59
2023-02-13T18:10:39.419Z,103542.03
2023-02-13T18:13:10.121Z,103542.00
2023-02-13T18:15:44.167Z,103544.56
2023-02-13T18:18:16.249Z,103543.69
2023-02-13T18:20:49.645Z,103542.13
2023-02-13T18:23:18.876Z,103546.25
2023-02-13T18:25:50.451Z,103548.94
2023-02-13T18:28:21.541Z,103546.31
2023-02-13T18:30:50.739Z,103551.34
2023-02-13T18:33:19.855Z,103555.75
2023-02-13T18:35:49.136Z,103562.84
2023-02-13T18:38:18.200Z,103561.06
2023-02-13T18:40:47.289Z,103560.22
2023-02-13T18:43:16.667Z,103549.72
2023-02-13T18:45:47.233Z,103546.34
2023-02-13T18:48:16.639Z,103543.00
2023-02-13T18:50:45.755Z,103545.03
2023-02-13T18:53:15.071Z,103543.16
2023-02-13T18:55:44.199Z,103546.47
2023-02-13T18:58:16.498Z,103549.94
2023-02-13T19:00:47.158Z,103550.66
2023-02-13T19:03:18.192Z,103541.97
2023-02-13T19:05:47.354Z,103536.69
2023-02-13T19:08:16.474Z,103536.59
2023-02-13T19:10:45.577Z,103540.06
2023-02-13T19:13:14.872Z,103530.84
2023-02-13T19:15:44.264Z,103535.97
2023-02-13T19:18:15.159Z,103532.50
2023-02-13T19:20:44.347Z,103539.38
2023-02-13T19:23:13.828Z,103531.75
2023-02-13T19:25:43.055Z,103535.19
2023-02-13T19:28:12.241Z,103542.03
2023-02-13T19:30:42.060Z,103533.31
2023-02-13T19:33:11.400Z,103536.88
2023-02-13T19:35:42.797Z,103537.63
2023-02-13T19:38:13.308Z,103547.09
2023-02-13T19:40:45.973Z,103535.97
2023-02-13T19:43:15.137Z,103539.31
2023-02-13T19:45:44.793Z,103544.41
2023-02-13T19:48:13.954Z,103541.91
2023-02-13T19:50:44.746Z,103532.59
2023-02-13T19:53:14.124Z,103535.03
2023-02-13T19:55:43.901Z,103534.09
2023-02-13T19:58:14.212Z,103536.06
2023-02-13T20:00:43.686Z,103536.84
2023-02-13T20:03:14.676Z,103536.84
2023-02-13T20:05:45.399Z,103542.06
2023-02-13T20:08:15.051Z,103542.94
2023-02-13T20:10:45.947Z,103532.53
2023-02-13T20:13:15.368Z,103537.00
2023-02-13T20:15:44.926Z,103542.16
2023-02-13T20:18:17.023Z,103541.31
2023-02-13T20:20:47.571Z,103545.56
2023-02-13T20:23:17.940Z,103552.56
2023-02-13T20:25:47.338Z,103544.81
2023-02-13T20:28:16.689Z,103550.91
2023-02-13T20:30:46.106Z,103560.38
2023-02-13T20:33:15.318Z,103554.34
2023-02-13T20:35:46.504Z,103550.09
2023-02-13T20:38:15.565Z,103554.28
2023-02-13T20:40:45.004Z,103548.22
2023-02-13T20:43:14.290Z,103555.25
2023-02-13T20:45:43.571Z,103562.03
2023-02-13T20:48:12.754Z,103554.22
2023-02-13T20:50:42.033Z,103562.91
2023-02-13T20:53:13.237Z,103563.16
2023-02-13T20:55:42.365Z,103560.53
2023-02-13T20:58:12.130Z,103565.72
2023-02-13T21:00:41.396Z,103566.59
2023-02-13T21:03:10.530Z,103565.75
2023-02-13T21:05:39.649Z,103571.91
2023-02-13T21:08:08.848Z,103575.22
2023-02-13T21:10:40.559Z,103578.94
2023-02-13T21:13:10.235Z,103565.97
2023-02-13T21:15:39.728Z,103572.69
2023-02-13T21:18:09.457Z,103572.66
2023-02-13T21:20:38.573Z,103571.91
2023-02-13T21:23:07.691Z,103566.75
2023-02-13T21:25:36.796Z,103577.00
2023-02-13T21:28:07.344Z,103571.88
2023-02-13T21:30:37.717Z,103574.38
2023-02-13T21:33:06.786Z,103575.28
2023-02-13T21:35:35.920Z,103581.59
2023-02-13T21:38:05.005Z,103573.88
2023-02-13T21:40:34.431Z,103570.47
2023-02-13T21:43:03.546Z,103579.00
2023-02-13T21:45:34.036Z,103577.25
2023-02-13T21:48:03.092Z,103578.06
2023-02-13T21:50:32.154Z,103570.31
2023-02-13T21:53:01.217Z,103577.25
2023-02-13T21:55:30.799Z,103579.00
2023-02-13T21:57:59.846Z,103582.50
2023-02-13T22:00:28.918Z,103585.22
2023-02-13T22:02:59.449Z,103584.44
2023-02-13T22:05:28.512Z,103589.72
2023-02-13T22:08:12.605Z,103592.97
2023-02-13T22:10:41.780Z,103591.22
2023-02-13T22:13:10.864Z,103581.59
2023-02-13T22:15:39.942Z,103580.03
2023-02-13T22:18:10.339Z,103591.38
2023-02-13T22:20:39.789Z,103586.94
2023-02-13T22:23:08.830Z,103581.75
2023-02-13T22:25:37.898Z,103581.13
2023-02-13T22:28:07.001Z,103585.28
2023-02-13T22:30:38.140Z,103582.72
2023-02-13T22:33:07.336Z,103584.38
2023-02-13T22:35:40.441Z,103581.75
2023-02-13T22:38:09.959Z,103584.44
2023-02-13T22:40:39.754Z,103585.31
2023-02-13T22:43:09.535Z,103587.19
2023-02-13T22:45:39.327Z,103591.38
2023-02-13T22:48:08.854Z,103597.56
2023-02-13T22:50:39.297Z,103585.53
2023-02-13T22:53:08.354Z,103598.56
2023-02-13T22:55:37.412Z,103589.81
2023-02-13T22:58:06.482Z,103587.91
2023-02-13T23:00:35.569Z,103592.19
2023-02-13T23:03:04.773Z,103595.56
2023-02-13T23:05:33.872Z,103588.13
2023-02-13T23:08:04.460Z,103596.69
2023-02-13T23:10:33.538Z,103594.13
2023-02-13T23:13:01.803Z,103591.44
2023-02-13T23:15:34.270Z,103588.09
2023-02-13T23:18:15.039Z,103602.16
2023-02-13T23:20:45.527Z,103589.81
2023-02-13T23:23:16.009Z,103588.94
2023-02-13T23:25:45.081Z,103588.06
2023-02-13T23:28:14.168Z,103596.69
2023-02-13T23:30:43.282Z,103590.69
2023-02-13T23:33:12.495Z,103589.81
2023-02-13T23:35:41.578Z,103590.75
2023-02-13T23:38:10.675Z,103593.44
2023-02-13T23:40:41.099Z,103591.81
2023-02-13T23:43:10.229Z,103590.78
2023-02-13T23:45:39.346Z,103589.94
2023-02-13T23:48:10.150Z,103596.09
2023-02-13T23:50:39.548Z,103590.75
2023-02-13T23:53:08.681Z,103577.72
2023-02-13T23:55:37.736Z,103578.63
2023-02-13T23:58:08.180Z,103584.03
